createdAt,value
2022-10-11T00:00:11.923Z,14.63
2022-10-11T00:02:39.125Z,12.52
2022-10-11T00:05:06.486Z,14.43
2022-10-11T00:07:33.829Z,9.38
2022-10-11T00:10:00.736Z,9.48
2022-10-11T00:12:27.597Z,12.20
2022-10-11T00:14:54.856Z,12.90
2022-10-11T00:17:21.729Z,7.63
2022-10-11T00:19:48.597Z,10.68
2022-10-11T00:22:15.970Z,11.13
2022-10-11T00:24:43.328Z,18.13
2022-10-11T00:27:10.222Z,9.10
2022-10-11T00:29:38.380Z,8.68
2022-10-11T00:32:05.797Z,9.48
2022-10-11T00:34:32.675Z,12.90
2022-10-11T00:36:59.557Z,10.57
2022-10-11T00:39:28.351Z,13.48
2022-10-11T00:41:55.626Z,12.43
2022-10-11T00:44:27.592Z,8.85
2022-10-11T00:46:56.006Z,9.32
2022-10-11T00:49:28.967Z,7.85
2022-10-11T00:52:01.913Z,8.30
2022-10-11T00:54:33.548Z,7.30
2022-10-11T00:57:05.606Z,8.25
2022-10-11T00:59:43.204Z,7.43
2022-10-11T01:02:12.859Z,11.60
2022-10-11T01:04:40.908Z,12.98
2022-10-11T01:07:09.146Z,8.13
2022-10-11T01:09:36.463Z,9.85
2022-10-11T01:12:11.925Z,7.80
2022-10-11T01:15:10.849Z,9.90
2022-10-11T01:18:06.112Z,9.77
2022-10-11T01:20:41.724Z,8.55
2022-10-11T01:23:39.083Z,8.52
2022-10-11T01:26:30.271Z,10.02
2022-10-11T01:29:27.629Z,8.77
2022-10-11T01:32:02.134Z,9.02
2022-10-11T01:34:40.333Z,10.23
2022-10-11T01:37:36.500Z,11.23
2022-10-11T01:40:26.073Z,15.48
2022-10-11T01:42:55.051Z,11.30
2022-10-11T01:45:22.338Z,9.25
2022-10-11T01:48:05.434Z,14.50
2022-10-11T01:50:35.064Z,8.13
2022-10-11T01:53:26.480Z,9.05
2022-10-11T01:56:04.390Z,13.07
2022-10-11T01:58:49.857Z,9.68
2022-10-11T02:01:41.257Z,12.32
2022-10-11T02:04:26.248Z,10.07
2022-10-11T02:07:24.541Z,9.40
2022-10-11T02:10:18.562Z,12.45
2022-10-11T02:12:53.634Z,12.63
2022-10-11T02:15:22.887Z,9.43
2022-10-11T02:17:55.418Z,12.93
2022-10-11T02:20:25.173Z,11.00
2022-10-11T02:22:58.420Z,11.10
2022-10-11T02:27:58.078Z,10.88
2022-10-11T02:30:25.343Z,9.57
2022-10-11T02:32:54.509Z,11.75
2022-10-11T02:35:25.300Z,8.98
2022-10-11T02:38:02.488Z,11.57
2022-10-11T02:40:44.583Z,12.43
2022-10-11T02:43:19.515Z,14.52
2022-10-11T02:45:53.608Z,9.55
2022-10-11T02:48:20.978Z,11.35
2022-10-11T02:50:47.803Z,13.80
2022-10-11T02:53:14.677Z,8.88
2022-10-11T02:55:41.570Z,10.30
2022-10-11T02:58:08.421Z,9.18
2022-10-11T03:00:35.254Z,19.45
2022-10-11T03:03:02.494Z,11.27
2022-10-11T03:05:29.469Z,11.73
2022-10-11T03:07:56.703Z,11.98
2022-10-11T03:10:23.572Z,12.63
2022-10-11T03:12:50.659Z,14.50
2022-10-11T03:15:17.511Z,11.77
2022-10-11T03:17:44.403Z,15.25
2022-10-11T03:20:11.814Z,13.35
2022-10-11T03:22:39.128Z,13.68
2022-10-11T03:25:06.384Z,18.67
2022-10-11T03:27:34.073Z,12.52
2022-10-11T03:30:01.211Z,15.15
2022-10-11T03:32:28.755Z,15.75
2022-10-11T03:34:55.742Z,13.95
2022-10-11T03:37:22.679Z,17.15
2022-10-11T03:39:49.561Z,12.45
2022-10-11T03:42:16.942Z,16.88
2022-10-11T03:44:44.183Z,13.32
2022-10-11T03:47:11.481Z,16.08
2022-10-11T03:49:43.241Z,12.23
2022-10-11T03:52:11.310Z,14.63
2022-10-11T03:54:38.166Z,17.42
2022-10-11T03:57:05.228Z,15.02
2022-10-11T03:59:32.118Z,11.65
2022-10-11T04:01:59.371Z,11.70
2022-10-11T04:04:26.395Z,11.52
2022-10-11T04:06:53.747Z,11.48
2022-10-11T04:09:20.604Z,11.95
2022-10-11T04:11:47.471Z,13.30
2022-10-11T04:14:16.824Z,11.13
2022-10-11T04:16:43.676Z,15.35
2022-10-11T04:19:10.546Z,11.40
2022-10-11T04:21:37.781Z,13.18
2022-10-11T04:24:05.164Z,21.45
2022-10-11T04:26:32.117Z,11.35
2022-10-11T04:28:59.134Z,12.30
2022-10-11T04:31:26.515Z,15.68
2022-10-11T04:33:53.392Z,15.88
2022-10-11T04:36:20.498Z,13.35
2022-10-11T04:38:47.364Z,12.43
2022-10-11T04:41:15.831Z,13.27
2022-10-11T04:43:43.214Z,15.35
2022-10-11T04:46:10.703Z,14.25
2022-10-11T04:48:38.370Z,15.63
2022-10-11T04:51:05.633Z,14.25
2022-10-11T04:53:32.871Z,17.33
2022-10-11T04:56:06.902Z,14.57
2022-10-11T04:58:35.340Z,13.52
2022-10-11T05:01:02.213Z,18.33
2022-10-11T05:03:29.324Z,13.00
2022-10-11T05:05:56.731Z,14.77
2022-10-11T05:08:24.431Z,13.90
2022-10-11T05:11:04.526Z,12.45
2022-10-11T05:13:32.198Z,54.53
2022-10-11T05:15:59.490Z,13.13
2022-10-11T05:18:26.919Z,13.63
2022-10-11T05:21:30.419Z,17.45
2022-10-11T05:23:57.941Z,13.90
2022-10-11T05:26:27.275Z,16.42
2022-10-11T05:28:54.917Z,15.60
2022-10-11T05:31:22.300Z,13.38
2022-10-11T05:33:49.230Z,13.98
2022-10-11T05:36:16.590Z,11.80
2022-10-11T05:38:44.173Z,14.45
2022-10-11T05:41:14.027Z,17.10
2022-10-11T05:43:41.407Z,19.20
2022-10-11T05:46:08.959Z,14.63
2022-10-11T05:48:36.172Z,22.48
2022-10-11T05:51:05.720Z,15.25
2022-10-11T05:53:33.373Z,15.48
2022-10-11T05:56:00.590Z,35.80
2022-10-11T05:58:27.806Z,19.30
2022-10-11T06:00:57.140Z,16.60
2022-10-11T06:03:24.164Z,14.93
2022-10-11T06:05:55.807Z,17.67
2022-10-11T06:08:24.147Z,15.32
2022-10-11T06:10:50.988Z,16.85
2022-10-11T06:13:18.551Z,20.55
2022-10-11T06:15:45.440Z,21.05
2022-10-11T06:18:12.289Z,16.45
2022-10-11T06:20:39.544Z,19.63
2022-10-11T06:23:06.421Z,19.42
2022-10-11T06:25:33.291Z,19.10
2022-10-11T06:28:00.173Z,18.67
2022-10-11T06:30:27.227Z,18.65
2022-10-11T06:32:54.140Z,17.70
2022-10-11T06:35:21.029Z,17.75
2022-10-11T06:37:47.929Z,18.33
2022-10-11T06:40:15.211Z,18.15
2022-10-11T06:42:42.421Z,22.35
2022-10-11T06:45:09.682Z,23.02
2022-10-11T06:47:36.532Z,22.10
2022-10-11T06:50:03.941Z,28.35
2022-10-11T06:52:31.203Z,22.88
2022-10-11T06:54:58.041Z,18.77
2022-10-11T06:57:25.351Z,23.65
2022-10-11T06:59:52.828Z,17.83
2022-10-11T07:02:20.090Z,19.95
2022-10-11T07:04:46.972Z,18.58
2022-10-11T07:07:15.002Z,19.23
2022-10-11T07:09:42.351Z,22.75
2022-10-11T07:12:09.606Z,20.80
2022-10-11T07:14:36.595Z,19.98
2022-10-11T07:17:03.720Z,14.55
2022-10-11T07:19:31.012Z,20.23
2022-10-11T07:21:57.891Z,17.75
2022-10-11T07:24:24.803Z,22.77
2022-10-11T07:26:51.793Z,19.17
2022-10-11T07:29:18.955Z,17.70
2022-10-11T07:31:45.846Z,16.33
2022-10-11T07:34:12.942Z,17.60
2022-10-11T07:36:39.994Z,20.83
2022-10-11T07:39:08.806Z,19.73
2022-10-11T07:41:38.846Z,21.13
2022-10-11T07:44:08.169Z,22.73
2022-10-11T07:46:35.391Z,20.27
2022-10-11T07:49:02.475Z,22.30
2022-10-11T07:51:29.469Z,20.77
2022-10-11T07:53:57.526Z,22.75
2022-10-11T07:56:28.479Z,23.25
2022-10-11T07:59:00.859Z,23.95
2022-10-11T08:01:28.671Z,55.92
2022-10-11T08:03:59.398Z,22.48
2022-10-11T08:06:32.081Z,22.85
2022-10-11T08:09:00.727Z,21.10
2022-10-11T08:11:33.881Z,24.38
2022-10-11T08:16:28.038Z,21.58
2022-10-11T08:18:57.351Z,22.25
2022-10-11T08:21:26.400Z,26.63
2022-10-11T08:23:53.682Z,20.95
2022-10-11T08:26:20.983Z,18.60
2022-10-11T08:28:48.269Z,18.75
2022-10-11T08:31:16.068Z,25.35
2022-10-11T08:33:43.741Z,24.30
2022-10-11T08:36:11.093Z,20.67
2022-10-11T08:38:38.902Z,20.85
2022-10-11T08:41:43.375Z,23.17
2022-10-11T08:44:58.724Z,21.52
2022-10-11T08:47:33.310Z,25.88
2022-10-11T08:50:00.719Z,21.73
2022-10-11T08:52:50.942Z,19.77
2022-10-11T08:55:45.110Z,21.48
2022-10-11T08:58:17.452Z,24.77
2022-10-11T09:00:48.212Z,25.30
2022-10-11T09:03:22.019Z,27.02
2022-10-11T09:06:08.979Z,17.45
2022-10-11T09:08:55.435Z,17.13
2022-10-11T09:11:56.099Z,26.33
2022-10-11T09:14:53.644Z,23.10
2022-10-11T09:17:24.887Z,20.40
2022-10-11T09:20:24.939Z,18.02
2022-10-11T09:22:55.147Z,24.73
2022-10-11T09:25:57.139Z,18.05
2022-10-11T09:28:29.292Z,20.42
2022-10-11T09:30:58.028Z,24.47
2022-10-11T09:33:38.837Z,22.38
2022-10-11T09:36:22.519Z,21.65
2022-10-11T09:39:07.752Z,21.13
2022-10-11T09:41:45.835Z,24.80
2022-10-11T09:44:23.155Z,29.17
2022-10-11T09:46:50.966Z,18.67
2022-10-11T09:49:21.689Z,75.45
2022-10-11T09:51:57.544Z,26.33
2022-10-11T09:54:52.028Z,20.73
2022-10-11T09:57:25.922Z,19.75
2022-10-11T10:00:08.609Z,17.83
2022-10-11T10:02:49.057Z,19.27
2022-10-11T10:05:27.736Z,19.17
2022-10-11T10:08:09.003Z,22.52
2022-10-11T10:10:59.610Z,16.27
2022-10-11T10:13:46.804Z,18.35
2022-10-11T10:16:29.574Z,21.95
2022-10-11T10:19:04.505Z,18.33
2022-10-11T10:21:36.033Z,21.20
2022-10-11T10:24:09.403Z,24.05
2022-10-11T10:26:36.658Z,39.65
2022-10-11T10:29:10.049Z,21.98
2022-10-11T10:35:16.339Z,20.17
2022-10-11T10:37:53.609Z,18.88
2022-10-11T10:40:52.642Z,16.65
2022-10-11T10:43:28.917Z,19.25
2022-10-11T10:46:11.648Z,19.77
2022-10-11T10:49:34.514Z,16.38
2022-10-11T10:52:13.188Z,20.08
2022-10-11T10:54:42.712Z,16.50
2022-10-11T10:57:25.246Z,23.17
2022-10-11T11:00:16.031Z,18.77
2022-10-11T11:03:06.905Z,13.73
2022-10-11T11:05:45.461Z,19.08
2022-10-11T11:08:39.102Z,18.58
2022-10-11T11:11:44.730Z,14.30
2022-10-11T11:14:40.526Z,16.70
2022-10-11T11:17:35.157Z,18.50
2022-10-11T11:20:55.304Z,11.25
2022-10-11T11:23:32.894Z,13.48
2022-10-11T11:26:05.382Z,9.55
2022-10-11T11:28:45.844Z,11.68
2022-10-11T11:31:45.839Z,12.25
2022-10-11T11:34:21.800Z,13.23
2022-10-11T11:36:57.514Z,10.63
2022-10-11T11:39:46.198Z,10.77
2022-10-11T11:42:21.202Z,11.55
2022-10-11T11:44:50.303Z,27.73
2022-10-11T11:47:18.048Z,15.55
2022-10-11T11:50:22.607Z,14.63
2022-10-11T11:52:56.508Z,13.82
2022-10-11T11:55:42.098Z,13.52
2022-10-11T11:58:23.500Z,14.90
2022-10-11T12:01:21.459Z,21.13
2022-10-11T12:03:55.920Z,16.85
2022-10-11T12:06:47.672Z,15.00
2022-10-11T12:09:23.959Z,18.30
2022-10-11T12:12:02.041Z,16.92
2022-10-11T12:14:34.281Z,23.50
2022-10-11T12:17:09.941Z,17.58
2022-10-11T12:19:38.535Z,17.80
2022-10-11T12:22:50.344Z,18.38
2022-10-11T12:25:22.577Z,11.00
2022-10-11T12:27:53.421Z,13.43
2022-10-11T12:30:44.703Z,15.45
2022-10-11T12:33:33.062Z,19.70
2022-10-11T12:36:21.832Z,14.10
2022-10-11T12:39:20.507Z,16.75
2022-10-11T12:41:50.358Z,18.50
2022-10-11T12:44:24.009Z,15.90
2022-10-11T12:46:50.791Z,18.58
2022-10-11T12:49:43.740Z,15.57
2022-10-11T12:52:44.270Z,19.98
2022-10-11T12:55:56.605Z,14.30
2022-10-11T12:58:30.494Z,19.77
2022-10-11T13:00:58.195Z,12.48
2022-10-11T13:03:47.390Z,23.20
2022-10-11T13:06:35.401Z,14.65
2022-10-11T13:09:15.710Z,17.20
2022-10-11T13:12:07.127Z,17.00
2022-10-11T13:14:42.463Z,13.13
2022-10-11T13:17:38.262Z,14.55
2022-10-11T13:20:20.438Z,13.38
2022-10-11T13:22:51.037Z,19.88
2022-10-11T13:25:24.443Z,9.52
2022-10-11T13:27:53.761Z,12.93
2022-10-11T13:30:45.401Z,13.23
2022-10-11T13:33:20.562Z,10.18
2022-10-11T13:35:48.290Z,11.40
2022-10-11T13:38:23.027Z,10.13
2022-10-11T13:40:51.259Z,12.95
2022-10-11T13:43:23.486Z,12.73
2022-10-11T13:45:50.786Z,10.75
2022-10-11T13:48:17.895Z,15.70
2022-10-11T13:50:52.325Z,8.13
2022-10-11T13:53:19.171Z,10.00
2022-10-11T13:55:56.770Z,7.88
2022-10-11T13:58:28.454Z,13.48
2022-10-11T14:00:57.805Z,9.10
2022-10-11T14:03:39.217Z,8.85
2022-10-11T14:06:07.147Z,12.18
2022-10-11T14:08:37.719Z,11.30
2022-10-11T14:11:06.926Z,10.77
2022-10-11T14:13:45.977Z,12.00
2022-10-11T14:16:18.748Z,8.40
2022-10-11T14:18:46.024Z,11.85
2022-10-11T14:21:34.758Z,11.30
2022-10-11T14:24:01.677Z,15.70
2022-10-11T14:26:36.717Z,11.90
2022-10-11T14:29:12.301Z,11.55
2022-10-11T14:31:42.102Z,10.15
2022-10-11T14:34:30.913Z,12.63
2022-10-11T14:36:57.906Z,12.45
2022-10-11T14:39:27.798Z,11.15
2022-10-11T14:41:55.603Z,14.05
2022-10-11T14:44:23.183Z,12.52
2022-10-11T14:46:54.367Z,11.50
2022-10-11T14:49:27.649Z,9.73
2022-10-11T14:51:56.781Z,10.18
2022-10-11T14:54:25.191Z,7.95
2022-10-11T14:56:54.223Z,10.73
2022-10-11T14:59:24.421Z,7.03
2022-10-11T15:01:53.683Z,12.55
2022-10-11T15:04:25.778Z,12.68
2022-10-11T15:06:54.373Z,9.57
2022-10-11T15:09:22.118Z,12.20
2022-10-11T15:11:50.915Z,8.38
2022-10-11T15:14:18.363Z,9.45
2022-10-11T15:16:45.645Z,10.30
2022-10-11T15:19:22.169Z,15.07
2022-10-11T15:21:49.530Z,12.10
2022-10-11T15:24:20.042Z,13.20
2022-10-11T15:26:48.466Z,10.80
2022-10-11T15:29:18.146Z,12.93
2022-10-11T15:31:46.443Z,14.43
2022-10-11T15:34:13.863Z,11.40
2022-10-11T15:36:40.884Z,15.80
2022-10-11T15:39:37.388Z,15.00
2022-10-11T15:42:04.477Z,16.23
2022-10-11T15:44:31.704Z,11.25
2022-10-11T15:46:59.015Z,17.25
2022-10-11T15:49:26.262Z,25.83
2022-10-11T15:51:53.142Z,25.23
2022-10-11T15:54:20.415Z,20.20
2022-10-11T15:56:47.789Z,17.25
2022-10-11T15:59:14.663Z,20.20
2022-10-11T16:01:41.647Z,18.13
2022-10-11T16:04:08.969Z,16.55
2022-10-11T16:06:35.847Z,19.85
2022-10-11T16:09:03.321Z,16.05
2022-10-11T16:11:30.150Z,20.55
2022-10-11T16:13:57.109Z,32.08
2022-10-11T16:16:24.249Z,27.88
2022-10-11T16:18:51.485Z,27.60
2022-10-11T16:21:18.411Z,38.22
2022-10-11T16:23:45.262Z,28.65
2022-10-11T16:26:14.858Z,29.50
2022-10-11T16:28:42.290Z,31.45
2022-10-11T16:31:18.226Z,38.13
2022-10-11T16:33:48.172Z,43.92
2022-10-11T16:36:35.147Z,42.28
2022-10-11T16:39:06.259Z,40.42
2022-10-11T16:41:33.141Z,36.58
2022-10-11T16:44:00.714Z,27.63
2022-10-11T16:46:27.652Z,30.67
2022-10-11T16:48:57.947Z,34.65
2022-10-11T16:51:25.359Z,35.33
2022-10-11T16:53:53.186Z,33.25
2022-10-11T16:56:22.681Z,93.03
2022-10-11T16:58:49.601Z,46.78
2022-10-11T17:01:16.906Z,39.15
2022-10-11T17:03:44.204Z,56.17
2022-10-11T17:06:11.051Z,45.20
2022-10-11T17:08:38.083Z,44.47
2022-10-11T17:11:06.350Z,43.58
2022-10-11T17:13:33.612Z,47.72
2022-10-11T17:16:00.770Z,50.13
2022-10-11T17:18:27.742Z,44.42
2022-10-11T17:21:12.410Z,53.15
2022-10-11T17:23:39.736Z,51.65
2022-10-11T17:26:11.359Z,47.97
2022-10-11T17:28:39.137Z,47.35
2022-10-11T17:31:07.594Z,49.22
2022-10-11T17:33:35.259Z,51.88
2022-10-11T17:36:02.914Z,54.45
2022-10-11T17:38:30.771Z,49.38
2022-10-11T17:41:02.584Z,45.17
2022-10-11T17:43:29.985Z,49.97
2022-10-11T17:45:58.556Z,56.70
2022-10-11T17:48:27.712Z,50.10
2022-10-11T17:50:55.070Z,45.90
2022-10-11T17:53:21.993Z,48.90
2022-10-11T17:55:50.481Z,43.67
2022-10-11T17:58:18.741Z,47.97
2022-10-11T18:00:45.652Z,42.92
2022-10-11T18:03:12.605Z,40.95
2022-10-11T18:05:41.074Z,43.33
2022-10-11T18:08:08.577Z,49.92
2022-10-11T18:10:37.012Z,40.40
2022-10-11T18:13:06.789Z,41.13
2022-10-11T18:15:34.090Z,43.55
2022-10-11T18:18:01.030Z,51.30
2022-10-11T18:20:27.913Z,50.72
2022-10-11T18:22:54.813Z,46.70
2022-10-11T18:25:21.864Z,42.40
2022-10-11T18:27:48.907Z,49.00
2022-10-11T18:30:16.208Z,55.45
2022-10-11T18:32:44.048Z,46.05
2022-10-11T18:35:11.413Z,42.25
2022-10-11T18:37:38.282Z,43.10
2022-10-11T18:40:05.763Z,43.08
2022-10-11T18:42:33.566Z,46.22
2022-10-11T18:45:00.852Z,47.80
2022-10-11T18:47:27.724Z,38.45
2022-10-11T18:49:54.961Z,39.47
2022-10-11T18:52:21.878Z,44.33
2022-10-11T18:54:49.100Z,43.20
2022-10-11T18:57:16.304Z,38.17
2022-10-11T18:59:43.222Z,41.40
2022-10-11T19:02:12.045Z,47.90
2022-10-11T19:04:39.750Z,39.30
2022-10-11T19:07:07.008Z,36.60
2022-10-11T19:09:33.873Z,34.15
2022-10-11T19:12:01.253Z,33.42
2022-10-11T19:14:30.328Z,38.80
2022-10-11T19:16:57.697Z,34.70
2022-10-11T19:19:27.822Z,46.30
2022-10-11T19:21:55.144Z,35.90
2022-10-11T19:24:24.396Z,29.30
2022-10-11T19:26:53.184Z,31.48
2022-10-11T19:29:22.743Z,30.65
2022-10-11T19:32:01.487Z,29.60
2022-10-11T19:34:30.051Z,34.80
2022-10-11T19:36:57.798Z,28.23
2022-10-11T19:39:25.576Z,27.98
2022-10-11T19:41:52.714Z,30.75
2022-10-11T19:44:19.756Z,27.33
2022-10-11T19:46:53.882Z,25.17
2022-10-11T19:49:25.869Z,33.20
2022-10-11T19:51:53.696Z,28.33
2022-10-11T19:54:21.143Z,25.70
2022-10-11T19:56:48.555Z,29.90
2022-10-11T19:59:16.145Z,25.20
2022-10-11T20:01:46.667Z,26.92
2022-10-11T20:04:33.185Z,24.60
2022-10-11T20:07:01.989Z,26.33
2022-10-11T20:09:30.381Z,28.20
2022-10-11T20:11:57.970Z,31.35
2022-10-11T20:14:25.037Z,24.40
2022-10-11T20:16:52.142Z,27.88
2022-10-11T20:19:19.505Z,21.42
2022-10-11T20:21:47.443Z,31.90
2022-10-11T20:24:14.361Z,29.30
2022-10-11T20:26:41.595Z,28.27
2022-10-11T20:29:08.546Z,30.55
2022-10-11T20:31:40.844Z,28.77
2022-10-11T20:34:08.291Z,68.93
2022-10-11T20:36:36.373Z,41.75
2022-10-11T20:39:04.864Z,21.23
2022-10-11T20:41:34.721Z,28.50
2022-10-11T20:44:03.150Z,23.20
2022-10-11T20:46:35.213Z,23.83
2022-10-11T20:49:08.486Z,25.73
2022-10-11T20:51:37.272Z,31.48
2022-10-11T20:54:04.877Z,30.80
2022-10-11T20:56:32.448Z,22.75
2022-10-11T20:58:59.758Z,22.90
2022-10-11T21:01:40.703Z,25.23
2022-10-11T21:04:14.529Z,26.83
2022-10-11T21:06:41.358Z,25.20
2022-10-11T21:09:10.255Z,21.40
2022-10-11T21:11:39.653Z,23.95
2022-10-11T21:14:06.578Z,24.80
2022-10-11T21:16:34.347Z,23.65
2022-10-11T21:19:02.204Z,24.05
2022-10-11T21:21:30.297Z,26.98
2022-10-11T21:23:59.674Z,24.20
2022-10-11T21:26:27.463Z,29.58
2022-10-11T21:28:54.558Z,24.58
2022-10-11T21:31:23.061Z,25.10
2022-10-11T21:33:50.309Z,29.35
2022-10-11T21:36:19.990Z,30.88
2022-10-11T21:38:48.105Z,23.05
2022-10-11T21:41:17.571Z,27.25
2022-10-11T21:43:44.641Z,24.38
2022-10-11T21:46:41.620Z,36.35
2022-10-11T21:49:13.479Z,32.70
2022-10-11T21:51:40.339Z,29.80
2022-10-11T21:54:07.354Z,25.98
2022-10-11T21:56:34.622Z,27.70
2022-10-11T21:59:01.671Z,27.17
2022-10-11T22:01:28.984Z,23.98
2022-10-11T22:03:56.138Z,27.92
2022-10-11T22:06:24.071Z,25.15
2022-10-11T22:08:51.446Z,24.45
2022-10-11T22:11:18.659Z,26.55
2022-10-11T22:13:45.926Z,60.80
2022-10-11T22:16:14.136Z,35.10
2022-10-11T22:18:41.915Z,23.65
2022-10-11T22:21:16.208Z,22.98
2022-10-11T22:23:45.528Z,25.63
2022-10-11T22:26:18.156Z,26.58
2022-10-11T22:28:46.693Z,29.52
2022-10-11T22:31:14.745Z,26.80
2022-10-11T22:33:42.227Z,24.90
2022-10-11T22:36:12.149Z,23.25
2022-10-11T22:38:41.209Z,18.63
2022-10-11T22:41:08.139Z,22.25
2022-10-11T22:43:35.645Z,25.52
2022-10-11T22:46:02.494Z,23.75
2022-10-11T22:48:29.366Z,20.58
2022-10-11T22:50:56.245Z,24.20
2022-10-11T22:53:23.761Z,19.40
2022-10-11T22:55:51.084Z,19.67
2022-10-11T22:58:18.039Z,21.73
2022-10-11T23:00:44.926Z,20.92
2022-10-11T23:03:16.895Z,21.50
2022-10-11T23:05:43.788Z,23.27
2022-10-11T23:08:10.715Z,24.08
2022-10-11T23:10:41.073Z,22.20
2022-10-11T23:13:07.988Z,20.77
2022-10-11T23:15:35.008Z,24.27
2022-10-11T23:18:02.066Z,25.50
2022-10-11T23:20:28.918Z,23.40
2022-10-11T23:22:55.770Z,17.67
2022-10-11T23:25:22.650Z,20.35
2022-10-11T23:27:49.872Z,22.80
2022-10-11T23:30:17.226Z,23.45
2022-10-11T23:32:44.078Z,20.88
2022-10-11T23:35:10.941Z,19.85
2022-10-11T23:37:38.126Z,23.15
2022-10-11T23:40:05.819Z,22.13
2022-10-11T23:42:32.663Z,18.80
2022-10-11T23:44:59.515Z,26.95
2022-10-11T23:47:26.423Z,19.95
2022-10-11T23:49:53.259Z,24.92
2022-10-11T23:52:20.121Z,19.95
2022-10-11T23:54:47.017Z,23.63
2022-10-11T23:57:13.894Z,20.20
2022-10-11T23:59:41.141Z,21.38
